Time;durP1;ratioP1;P1;durP2;ratioP2;P2;SDS_P1;SDS_P2;PMS_P1;PMS_P2;Temp;Humidity;BMP_temperature;BMP_pressure;BME280_temperature;BME280_humidity;BME280_pressure;Samples;Min_cycle;Max_cycle;Signal;HPM_P1;HPM_P2
2023/12/29 00:02:12;;;;;;;17.30;16.60;;;;;;;;;;5091168;28;20449;-76
2023/12/29 00:04:39;;;;;;;18.60;17.30;;;;;;;;;;5091578;28;20449;-75
2023/12/29 00:07:06;;;;;;;18.00;17.00;;;;;;;;;;5091323;28;20469;-76
2023/12/29 00:09:40;;;;;;;17.80;16.67;;;;;;;;;;5090810;28;20469;-76
2023/12/29 00:12:07;;;;;;;17.93;16.73;;;;;;;;;;5090796;28;20528;-75
2023/12/29 00:14:34;;;;;;;18.20;17.10;;;;;;;;;;5091112;28;20489;-75
2023/12/29 00:17:01;;;;;;;17.07;16.17;;;;;;;;;;5091133;28;20549;-74
2023/12/29 00:19:28;;;;;;;17.90;17.00;;;;;;;;;;5082537;28;20531;-76
2023/12/29 00:21:55;;;;;;;17.47;16.67;;;;;;;;;;5070266;28;20458;-76
2023/12/29 00:24:22;;;;;;;17.20;16.00;;;;;;;;;;5070898;28;20456;-76
2023/12/29 00:26:50;;;;;;;17.53;16.53;;;;;;;;;;5070807;28;20462;-76
2023/12/29 00:29:17;;;;;;;18.83;17.70;;;;;;;;;;5070989;28;20531;-76
2023/12/29 00:31:44;;;;;;;17.60;16.70;;;;;;;;;;5070438;28;20461;-75
2023/12/29 00:34:11;;;;;;;18.00;16.87;;;;;;;;;;5070705;28;20446;-75
2023/12/29 00:39:42;;;;;;;17.80;16.77;;;;;;;;;;5068776;28;20392;-76
2023/12/29 00:42:10;;;;;;;17.70;16.90;;;;;;;;;;5069938;28;20518;-76
2023/12/29 00:44:37;;;;;;;17.40;16.60;;;;;;;;;;5070374;28;20959;-76
2023/12/29 00:47:04;;;;;;;18.57;17.20;;;;;;;;;;5069685;28;20482;-76
2023/12/29 00:49:31;;;;;;;17.60;16.50;;;;;;;;;;5070383;28;20461;-75
2023/12/29 00:51:58;;;;;;;17.80;16.57;;;;;;;;;;5069987;28;20450;-75
2023/12/29 00:54:25;;;;;;;16.90;16.00;;;;;;;;;;5070176;28;20429;-76
2023/12/29 00:56:53;;;;;;;17.10;16.30;;;;;;;;;;5070247;28;20518;-75
2023/12/29 00:59:21;;;;;;;16.80;15.80;;;;;;;;;;5070183;28;20978;-76
2023/12/29 01:01:48;;;;;;;17.23;16.23;;;;;;;;;;5069655;28;20420;-75
2023/12/29 01:04:15;;;;;;;17.30;16.50;;;;;;;;;;5070503;28;20490;-76
2023/12/29 01:09:46;;;;;;;16.27;15.23;;;;;;;;;;5068497;28;20442;-76
2023/12/29 01:12:14;;;;;;;16.67;15.83;;;;;;;;;;5069596;28;20503;-75
2023/12/29 01:14:43;;;;;;;15.97;15.27;;;;;;;;;;5074987;28;20510;-75
2023/12/29 01:17:10;;;;;;;16.50;15.40;;;;;;;;;;5089476;28;20516;-76
2023/12/29 01:19:37;;;;;;;16.53;15.73;;;;;;;;;;5090196;28;20851;-76
2023/12/29 01:22:04;;;;;;;16.57;15.77;;;;;;;;;;5078287;28;20446;-75
2023/12/29 01:24:31;;;;;;;16.93;15.90;;;;;;;;;;5069900;28;20449;-76
2023/12/29 01:26:58;;;;;;;16.40;15.70;;;;;;;;;;5069217;28;20456;-75
2023/12/29 01:29:25;;;;;;;16.20;15.40;;;;;;;;;;5075499;28;20518;-75
2023/12/29 01:31:53;;;;;;;16.03;15.40;;;;;;;;;;5068047;28;20446;-75
2023/12/29 01:34:20;;;;;;;16.43;15.73;;;;;;;;;;5069747;28;20416;-75
2023/12/29 01:36:47;;;;;;;18.10;17.20;;;;;;;;;;5068724;28;21054;-76
2023/12/29 01:39:14;;;;;;;16.60;15.73;;;;;;;;;;5069593;28;20450;-76
2023/12/29 01:41:41;;;;;;;18.07;16.77;;;;;;;;;;5068893;28;20490;-76
2023/12/29 01:44:21;;;;;;;17.30;16.30;;;;;;;;;;5068886;28;20448;-76
2023/12/29 01:46:49;;;;;;;17.80;17.00;;;;;;;;;;5069705;28;20958;-75
2023/12/29 01:49:18;;;;;;;16.57;15.87;;;;;;;;;;5069767;28;20442;-75
2023/12/29 01:51:45;;;;;;;17.30;16.40;;;;;;;;;;5070062;28;20453;-76
2023/12/29 01:54:13;;;;;;;16.47;15.53;;;;;;;;;;5073717;28;20920;-76
2023/12/29 01:56:40;;;;;;;17.27;16.10;;;;;;;;;;5072811;28;20472;-76
2023/12/29 01:59:07;;;;;;;16.47;15.77;;;;;;;;;;5073825;28;20509;-74
2023/12/29 02:01:34;;;;;;;16.57;15.87;;;;;;;;;;5073025;28;20467;-76
2023/12/29 02:04:02;;;;;;;16.20;15.30;;;;;;;;;;5073229;28;20421;-76
2023/12/29 02:06:30;;;;;;;17.23;16.07;;;;;;;;;;5072742;28;20470;-75
2023/12/29 02:08:57;;;;;;;16.70;15.90;;;;;;;;;;5073202;28;20475;-76
2023/12/29 02:11:24;;;;;;;16.47;15.77;;;;;;;;;;5073137;28;20427;-75
2023/12/29 02:13:51;;;;;;;16.53;15.23;;;;;;;;;;5073492;28;20449;-75
2023/12/29 02:16:23;;;;;;;16.73;15.83;;;;;;;;;;5073122;28;20444;-75
2023/12/29 02:18:52;;;;;;;16.00;15.20;;;;;;;;;;5073751;28;20452;-75
2023/12/29 02:21:24;;;;;;;17.20;16.30;;;;;;;;;;5072651;28;20443;-76
2023/12/29 02:23:52;;;;;;;16.27;15.30;;;;;;;;;;5073103;28;20469;-76
2023/12/29 02:26:22;;;;;;;17.30;16.50;;;;;;;;;;5073037;28;20436;-76
2023/12/29 02:28:54;;;;;;;15.87;15.07;;;;;;;;;;5073470;28;20484;-75
2023/12/29 02:31:23;;;;;;;17.30;16.30;;;;;;;;;;5072699;28;20466;-76
2023/12/29 02:33:52;;;;;;;17.17;16.17;;;;;;;;;;5073253;28;20522;-75
2023/12/29 02:36:19;;;;;;;16.43;15.63;;;;;;;;;;5072181;28;20436;-76
2023/12/29 02:38:46;;;;;;;16.40;15.80;;;;;;;;;;5073313;28;20501;-76
2023/12/29 02:41:14;;;;;;;17.00;16.00;;;;;;;;;;5072320;28;20423;-76
2023/12/29 02:43:43;;;;;;;17.77;16.87;;;;;;;;;;5072969;28;20423;-76
2023/12/29 02:46:10;;;;;;;17.87;17.07;;;;;;;;;;5072666;28;20863;-77
2023/12/29 02:48:37;;;;;;;22.57;20.80;;;;;;;;;;5072740;28;20476;-75
2023/12/29 02:51:04;;;;;;;20.27;19.27;;;;;;;;;;5071617;28;20477;-77
2023/12/29 02:53:31;;;;;;;20.20;19.40;;;;;;;;;;5072730;28;20499;-75
2023/12/29 02:55:58;;;;;;;21.80;20.90;;;;;;;;;;5072349;28;20448;-75
2023/12/29 02:58:25;;;;;;;22.60;21.60;;;;;;;;;;5072662;28;20515;-76
2023/12/29 03:00:53;;;;;;;23.17;21.97;;;;;;;;;;5071495;28;20609;-75
2023/12/29 03:03:20;;;;;;;24.70;23.50;;;;;;;;;;5082310;28;20901;-78
2023/12/29 03:05:47;;;;;;;26.47;25.03;;;;;;;;;;5072706;28;20470;-76
2023/12/29 03:08:14;;;;;;;26.23;24.93;;;;;;;;;;5072053;28;20448;-76
2023/12/29 03:10:41;;;;;;;31.40;29.90;;;;;;;;;;5072131;28;20478;-76
2023/12/29 03:13:08;;;;;;;33.30;31.70;;;;;;;;;;5072219;28;20428;-75
2023/12/29 03:15:35;;;;;;;32.80;31.10;;;;;;;;;;5072218;28;21003;-75
2023/12/29 03:18:04;;;;;;;31.67;30.20;;;;;;;;;;5072160;28;20464;-76
2023/12/29 03:20:31;;;;;;;27.83;26.47;;;;;;;;;;5071475;28;20433;-77
2023/12/29 03:22:58;;;;;;;27.27;25.90;;;;;;;;;;5072043;28;20507;-76
2023/12/29 03:25:25;;;;;;;28.33;26.53;;;;;;;;;;5072138;28;20453;-75
2023/12/29 03:27:58;;;;;;;28.53;27.27;;;;;;;;;;5071186;28;20532;-77
2023/12/29 03:30:25;;;;;;;29.57;28.03;;;;;;;;;;5076371;28;20468;-76
2023/12/29 03:32:52;;;;;;;29.47;27.53;;;;;;;;;;5092243;28;20851;-75
2023/12/29 03:35:21;;;;;;;28.93;27.37;;;;;;;;;;5092022;28;20498;-76
2023/12/29 03:37:48;;;;;;;28.40;26.87;;;;;;;;;;5091916;28;20488;-77
2023/12/29 03:40:15;;;;;;;27.00;25.50;;;;;;;;;;5092433;28;20755;-76
2023/12/29 03:42:42;;;;;;;23.17;22.17;;;;;;;;;;5091612;28;20431;-75
2023/12/29 03:45:10;;;;;;;25.30;24.00;;;;;;;;;;5092284;28;20435;-76
2023/12/29 03:47:37;;;;;;;25.10;23.70;;;;;;;;;;5091997;28;20460;-76
2023/12/29 03:50:04;;;;;;;23.13;22.13;;;;;;;;;;5091902;28;20439;-77
2023/12/29 03:52:33;;;;;;;26.73;25.00;;;;;;;;;;5075343;28;20933;-77
2023/12/29 03:54:59;;;;;;;23.40;22.20;;;;;;;;;;5071389;28;20506;-76
2023/12/29 03:57:26;;;;;;;24.80;23.30;;;;;;;;;;5071171;28;20469;-75
2023/12/29 03:59:53;;;;;;;22.63;21.53;;;;;;;;;;5071450;28;20503;-76
2023/12/29 04:02:20;;;;;;;24.90;23.57;;;;;;;;;;5070853;28;20446;-75
2023/12/29 04:04:47;;;;;;;23.50;22.40;;;;;;;;;;5071599;28;20454;-75
2023/12/29 04:10:18;;;;;;;23.53;22.43;;;;;;;;;;5070673;28;20487;-76
2023/12/29 04:12:45;;;;;;;24.83;23.63;;;;;;;;;;5082561;28;20896;-75
2023/12/29 04:15:13;;;;;;;23.10;21.87;;;;;;;;;;5070665;28;20452;-76
2023/12/29 04:17:40;;;;;;;23.97;22.60;;;;;;;;;;5071079;28;20603;-75
2023/12/29 04:20:07;;;;;;;24.93;23.60;;;;;;;;;;5070973;28;20453;-76
2023/12/29 04:22:34;;;;;;;23.83;22.83;;;;;;;;;;5070456;28;20416;-75
2023/12/29 04:25:01;;;;;;;25.90;24.50;;;;;;;;;;5070797;28;20528;-76
2023/12/29 04:27:30;;;;;;;24.65;23.65;;;;;;;;;;5070669;28;20948;-76
2023/12/29 04:29:57;;;;;;;24.92;23.50;;;;;;;;;;5070909;28;20203;-76
2023/12/29 04:32:24;;;;;;;24.93;23.83;;;;;;;;;;5070339;28;20574;-76
2023/12/29 04:34:50;;;;;;;27.60;25.97;;;;;;;;;;5070711;28;20816;-76
2023/12/29 04:37:17;;;;;;;24.27;22.77;;;;;;;;;;5070454;28;20981;-76
2023/12/29 04:39:44;;;;;;;27.27;25.67;;;;;;;;;;5070834;28;21187;-76
2023/12/29 04:42:12;;;;;;;25.33;24.03;;;;;;;;;;5070084;28;20453;-75
2023/12/29 04:44:40;;;;;;;23.57;22.47;;;;;;;;;;5070758;28;20489;-76
2023/12/29 04:47:07;;;;;;;26.20;24.53;;;;;;;;;;5070519;28;20466;-75
2023/12/29 04:49:34;;;;;;;25.70;24.50;;;;;;;;;;5070742;28;20489;-76
2023/12/29 04:52:01;;;;;;;26.63;25.03;;;;;;;;;;5069893;28;20925;-75
2023/12/29 04:54:28;;;;;;;26.02;24.63;;;;;;;;;;5070557;28;20460;-76
2023/12/29 04:56:55;;;;;;;25.97;24.77;;;;;;;;;;5070264;28;20231;-76
2023/12/29 04:59:22;;;;;;;24.80;23.50;;;;;;;;;;5070524;28;20547;-76
2023/12/29 05:01:51;;;;;;;24.10;23.10;;;;;;;;;;5069837;28;20446;-75
2023/12/29 05:04:18;;;;;;;21.95;20.95;;;;;;;;;;5070515;28;20841;-77
2023/12/29 05:06:45;;;;;;;23.97;22.37;;;;;;;;;;5073472;28;20242;-76
2023/12/29 05:09:12;;;;;;;23.05;22.00;;;;;;;;;;5090126;28;20445;-76
2023/12/29 05:11:40;;;;;;;25.70;23.10;;;;;;;;;;5079414;28;20200;-76
2023/12/29 05:14:07;;;;;;;24.77;22.90;;;;;;;;;;5070257;28;20452;-76
2023/12/29 05:16:34;;;;;;;22.10;21.00;;;;;;;;;;5070538;28;20458;-76
2023/12/29 05:19:02;;;;;;;25.83;24.37;;;;;;;;;;5070081;28;20456;-75
2023/12/29 05:21:30;;;;;;;24.07;22.87;;;;;;;;;;5069956;28;20466;-76
2023/12/29 05:23:59;;;;;;;29.13;27.23;;;;;;;;;;5070137;28;20454;-75
2023/12/29 05:26:26;;;;;;;24.90;23.33;;;;;;;;;;5069274;28;20574;-76
2023/12/29 05:28:53;;;;;;;23.93;22.60;;;;;;;;;;5070066;28;20450;-76
2023/12/29 05:31:20;;;;;;;23.97;22.83;;;;;;;;;;5073522;28;21345;-76
2023/12/29 05:33:47;;;;;;;34.40;31.30;;;;;;;;;;5069944;28;20453;-76
2023/12/29 05:36:15;;;;;;;24.10;22.40;;;;;;;;;;5069847;28;20446;-76
2023/12/29 05:38:42;;;;;;;24.77;23.07;;;;;;;;;;5069914;28;20510;-76
2023/12/29 05:41:09;;;;;;;22.63;21.43;;;;;;;;;;5068963;28;20465;-76
2023/12/29 05:43:36;;;;;;;19.60;18.80;;;;;;;;;;5070025;28;20445;-75
2023/12/29 05:46:03;;;;;;;19.60;18.70;;;;;;;;;;5069536;28;20445;-75
2023/12/29 05:48:30;;;;;;;25.23;23.40;;;;;;;;;;5069778;28;20788;-76
2023/12/29 05:50:57;;;;;;;19.93;18.93;;;;;;;;;;5069179;28;20487;-76
2023/12/29 05:53:25;;;;;;;20.73;19.63;;;;;;;;;;5069510;28;20454;-77
2023/12/29 05:55:52;;;;;;;19.83;18.93;;;;;;;;;;5069688;28;20487;-76
2023/12/29 05:58:19;;;;;;;20.03;18.93;;;;;;;;;;5069187;28;20460;-76
2023/12/29 06:00:46;;;;;;;21.80;20.50;;;;;;;;;;5068720;28;20933;-76
2023/12/29 06:03:14;;;;;;;21.97;20.80;;;;;;;;;;5069213;28;20933;-75
2023/12/29 06:05:41;;;;;;;21.10;19.10;;;;;;;;;;5069568;28;20449;-76
2023/12/29 06:08:08;;;;;;;20.00;18.90;;;;;;;;;;5069315;28;20479;-75
2023/12/29 06:10:37;;;;;;;19.33;18.13;;;;;;;;;;5069111;28;20503;-76
2023/12/29 06:13:04;;;;;;;18.57;17.67;;;;;;;;;;5069075;28;21004;-75
2023/12/29 06:15:31;;;;;;;19.00;18.00;;;;;;;;;;5069299;28;20473;-76
2023/12/29 06:17:59;;;;;;;20.50;19.40;;;;;;;;;;5069056;28;20470;-76
2023/12/29 06:20:26;;;;;;;17.63;16.90;;;;;;;;;;5069230;28;20453;-75
2023/12/29 06:22:53;;;;;;;18.87;17.67;;;;;;;;;;5069554;28;20474;-76
2023/12/29 06:25:20;;;;;;;18.50;17.40;;;;;;;;;;5074938;28;20786;-76
2023/12/29 06:27:48;;;;;;;18.53;17.60;;;;;;;;;;5069026;28;20461;-76
2023/12/29 06:30:15;;;;;;;18.50;17.60;;;;;;;;;;5069192;28;20595;-76
2023/12/29 06:32:43;;;;;;;19.17;17.90;;;;;;;;;;5068888;28;20430;-76
2023/12/29 06:35:10;;;;;;;18.60;17.60;;;;;;;;;;5069142;28;20445;-77
2023/12/29 06:37:38;;;;;;;20.90;19.70;;;;;;;;;;5069937;28;20556;-75
2023/12/29 06:40:05;;;;;;;19.50;18.30;;;;;;;;;;5072977;28;20825;-75
2023/12/29 06:42:32;;;;;;;20.17;19.17;;;;;;;;;;5072589;28;20431;-76
2023/12/29 06:45:01;;;;;;;19.80;18.80;;;;;;;;;;5073178;28;20511;-75
2023/12/29 06:47:27;;;;;;;19.00;17.90;;;;;;;;;;5072631;28;20452;-75
2023/12/29 06:49:54;;;;;;;19.40;18.30;;;;;;;;;;5072685;28;20424;-75
2023/12/29 06:52:21;;;;;;;18.60;17.60;;;;;;;;;;5072292;28;20442;-75
2023/12/29 06:54:48;;;;;;;18.47;17.50;;;;;;;;;;5072591;28;20436;-76
2023/12/29 06:57:16;;;;;;;19.10;18.13;;;;;;;;;;5072637;28;20448;-75
2023/12/29 06:59:43;;;;;;;18.70;17.60;;;;;;;;;;5072624;28;20452;-76
2023/12/29 07:02:11;;;;;;;18.60;17.50;;;;;;;;;;5071950;28;20446;-75
2023/12/29 07:04:42;;;;;;;18.17;17.07;;;;;;;;;;5072823;28;20442;-75
2023/12/29 07:07:09;;;;;;;19.13;17.73;;;;;;;;;;5072079;28;20527;-76
2023/12/29 07:09:38;;;;;;;19.47;18.17;;;;;;;;;;5072987;28;20500;-75
2023/12/29 07:12:06;;;;;;;18.80;17.80;;;;;;;;;;5071149;28;20446;-76
2023/12/29 07:14:33;;;;;;;18.70;17.50;;;;;;;;;;5074906;28;20498;-76
2023/12/29 07:16:59;;;;;;;18.50;17.40;;;;;;;;;;5082759;28;20476;-74
2023/12/29 07:19:33;;;;;;;18.07;17.07;;;;;;;;;;5087889;28;20480;-74
2023/12/29 07:22:00;;;;;;;18.13;17.23;;;;;;;;;;5091941;28;20455;-75
2023/12/29 07:24:27;;;;;;;18.00;17.10;;;;;;;;;;5092431;28;20506;-76
2023/12/29 07:26:54;;;;;;;18.37;17.47;;;;;;;;;;5092270;28;20464;-77
2023/12/29 07:29:21;;;;;;;18.13;17.30;;;;;;;;;;5092492;28;20453;-76
2023/12/29 07:31:48;;;;;;;18.50;17.50;;;;;;;;;;5090303;28;20481;-76
2023/12/29 07:34:15;;;;;;;20.50;18.93;;;;;;;;;;5092228;28;20534;-76
2023/12/29 07:36:44;;;;;;;20.03;18.37;;;;;;;;;;5092068;28;20439;-76
2023/12/29 07:39:11;;;;;;;17.47;16.57;;;;;;;;;;5091882;28;20486;-74
2023/12/29 07:41:41;;;;;;;18.07;16.93;;;;;;;;;;5091548;28;20502;-76
2023/12/29 07:44:08;;;;;;;19.07;17.87;;;;;;;;;;5089440;28;20526;-76
2023/12/29 07:46:35;;;;;;;18.17;17.03;;;;;;;;;;5071806;28;20491;-77
2023/12/29 07:49:02;;;;;;;18.00;17.10;;;;;;;;;;5074526;28;20449;-77
2023/12/29 07:51:29;;;;;;;18.23;17.03;;;;;;;;;;5091479;28;20471;-76
2023/12/29 07:53:57;;;;;;;20.40;18.40;;;;;;;;;;5092101;28;20420;-75
2023/12/29 07:56:24;;;;;;;19.00;18.00;;;;;;;;;;5088559;28;20460;-79
2023/12/29 07:58:52;;;;;;;17.73;16.80;;;;;;;;;;5078380;28;20510;-77
2023/12/29 08:01:19;;;;;;;18.13;16.70;;;;;;;;;;5077911;28;20941;-76
2023/12/29 08:03:46;;;;;;;18.10;17.03;;;;;;;;;;5089858;28;20432;-79
2023/12/29 08:06:13;;;;;;;18.43;17.33;;;;;;;;;;5074127;28;20998;-79
2023/12/29 08:08:40;;;;;;;18.13;16.80;;;;;;;;;;5071948;28;20432;-78
2023/12/29 08:11:14;;;;;;;19.07;17.83;;;;;;;;;;5070774;28;20438;-76
2023/12/29 08:13:41;;;;;;;19.10;17.80;;;;;;;;;;5077782;28;20444;-85
2023/12/29 08:16:08;;;;;;;18.80;17.47;;;;;;;;;;5077555;28;20453;-76
2023/12/29 08:18:35;;;;;;;18.83;17.63;;;;;;;;;;5071776;28;20417;-76
2023/12/29 08:21:03;;;;;;;18.57;17.57;;;;;;;;;;5070389;28;20445;-77
2023/12/29 08:23:30;;;;;;;18.70;17.17;;;;;;;;;;5070785;28;20429;-76
2023/12/29 08:25:58;;;;;;;18.23;17.07;;;;;;;;;;5084583;28;20469;-78
2023/12/29 08:28:27;;;;;;;18.57;17.40;;;;;;;;;;5088467;28;20445;-76
2023/12/29 08:30:54;;;;;;;18.50;17.20;;;;;;;;;;5071019;28;20509;-77
2023/12/29 08:33:21;;;;;;;19.20;17.87;;;;;;;;;;5071743;28;20433;-77
2023/12/29 08:35:48;;;;;;;18.07;16.90;;;;;;;;;;5072832;28;20462;-76
2023/12/29 08:38:15;;;;;;;18.30;17.07;;;;;;;;;;5070446;28;20470;-77
2023/12/29 08:40:42;;;;;;;19.87;18.57;;;;;;;;;;5069261;28;20500;-77
2023/12/29 08:43:09;;;;;;;18.50;17.57;;;;;;;;;;5071053;28;20913;-77
2023/12/29 08:45:38;;;;;;;18.40;17.47;;;;;;;;;;5071035;28;20453;-77
2023/12/29 08:48:05;;;;;;;19.20;18.20;;;;;;;;;;5070318;28;20935;-77
2023/12/29 08:50:32;;;;;;;21.63;19.90;;;;;;;;;;5070297;28;20972;-76
2023/12/29 08:52:59;;;;;;;19.93;18.93;;;;;;;;;;5071158;28;20442;-77
2023/12/29 08:55:26;;;;;;;21.80;19.63;;;;;;;;;;5070517;28;20912;-79
2023/12/29 08:57:53;;;;;;;19.40;18.60;;;;;;;;;;5070635;28;20845;-78
2023/12/29 09:00:21;;;;;;;21.87;20.47;;;;;;;;;;5070686;28;20543;-79
2023/12/29 09:02:49;;;;;;;21.67;20.23;;;;;;;;;;5070449;28;20452;-77
2023/12/29 09:05:16;;;;;;;22.90;21.17;;;;;;;;;;5070207;28;20942;-78
2023/12/29 09:07:43;;;;;;;22.10;20.90;;;;;;;;;;5070310;28;20490;-78
2023/12/29 09:10:12;;;;;;;21.47;19.90;;;;;;;;;;5070959;28;20449;-77
2023/12/29 09:12:39;;;;;;;24.50;19.37;;;;;;;;;;5070296;28;20507;-78
2023/12/29 09:15:07;;;;;;;21.90;20.60;;;;;;;;;;5070920;28;20442;-77
2023/12/29 09:17:34;;;;;;;23.90;22.53;;;;;;;;;;5070714;28;20437;-76
2023/12/29 09:20:02;;;;;;;23.97;22.43;;;;;;;;;;5070823;28;20506;-77
2023/12/29 09:22:29;;;;;;;22.57;21.57;;;;;;;;;;5070087;28;20427;-78
2023/12/29 09:24:56;;;;;;;21.47;20.10;;;;;;;;;;5070830;28;20446;-77
2023/12/29 09:27:23;;;;;;;20.10;19.20;;;;;;;;;;5070686;28;20466;-77
2023/12/29 09:29:51;;;;;;;19.97;19.07;;;;;;;;;;5070313;28;20203;-77
2023/12/29 09:32:18;;;;;;;22.35;21.15;;;;;;;;;;5069982;28;20438;-76
2023/12/29 09:34:45;;;;;;;23.23;21.70;;;;;;;;;;5070607;28;20732;-79
2023/12/29 09:37:13;;;;;;;22.95;21.60;;;;;;;;;;5069803;28;20550;-77
2023/12/29 09:39:41;;;;;;;24.73;23.03;;;;;;;;;;5070377;28;20276;-77
2023/12/29 09:42:08;;;;;;;23.23;21.03;;;;;;;;;;5068168;28;20941;-78
2023/12/29 09:44:37;;;;;;;20.97;20.00;;;;;;;;;;5071193;28;20434;-76
2023/12/29 09:47:05;;;;;;;21.07;19.80;;;;;;;;;;5070652;28;20565;-75
2023/12/29 09:49:35;;;;;;;23.60;21.97;;;;;;;;;;5070683;28;20533;-76
2023/12/29 09:52:03;;;;;;;22.15;20.75;;;;;;;;;;5070410;28;20445;-77
2023/12/29 09:54:32;;;;;;;24.47;23.17;;;;;;;;;;5070844;28;20207;-76
2023/12/29 09:56:59;;;;;;;23.20;22.07;;;;;;;;;;5070022;28;20955;-76
2023/12/29 09:59:28;;;;;;;22.97;21.73;;;;;;;;;;5070234;28;20434;-76
2023/12/29 10:01:55;;;;;;;21.60;20.60;;;;;;;;;;5069666;28;20933;-77
2023/12/29 10:04:22;;;;;;;22.43;21.03;;;;;;;;;;5070469;28;20852;-76
2023/12/29 10:06:51;;;;;;;21.77;20.57;;;;;;;;;;5070171;28;20469;-75
2023/12/29 10:09:20;;;;;;;20.03;19.13;;;;;;;;;;5070385;28;20445;-78
2023/12/29 10:11:49;;;;;;;20.97;19.80;;;;;;;;;;5069510;28;20937;-75
2023/12/29 10:14:21;;;;;;;19.90;19.00;;;;;;;;;;5073746;28;20502;-76
2023/12/29 10:16:55;;;;;;;20.07;19.17;;;;;;;;;;5073895;28;20484;-76
2023/12/29 10:19:25;;;;;;;19.87;18.87;;;;;;;;;;5074199;28;20426;-76
2023/12/29 10:21:55;;;;;;;19.70;18.87;;;;;;;;;;5073883;28;20412;-77
2023/12/29 10:24:23;;;;;;;19.23;18.13;;;;;;;;;;5074129;28;20424;-76
2023/12/29 10:26:53;;;;;;;19.37;18.47;;;;;;;;;;5073534;28;20573;-76
2023/12/29 10:29:21;;;;;;;17.93;17.13;;;;;;;;;;5073877;28;21151;-76
2023/12/29 10:31:48;;;;;;;19.30;18.43;;;;;;;;;;5072836;28;20442;-76
2023/12/29 10:34:28;;;;;;;17.47;16.77;;;;;;;;;;5073245;28;21289;-76
2023/12/29 10:36:55;;;;;;;19.33;18.43;;;;;;;;;;5073348;28;20510;-76
2023/12/29 10:39:22;;;;;;;18.17;17.23;;;;;;;;;;5073597;28;20446;-77
2023/12/29 10:41:49;;;;;;;18.80;17.80;;;;;;;;;;5072609;28;20456;-75
2023/12/29 10:44:18;;;;;;;17.83;16.90;;;;;;;;;;5073896;28;20466;-77
2023/12/29 10:46:45;;;;;;;17.33;16.43;;;;;;;;;;5073266;28;20463;-76
2023/12/29 10:49:13;;;;;;;18.00;17.13;;;;;;;;;;5073700;28;20531;-77
2023/12/29 10:51:40;;;;;;;17.50;16.80;;;;;;;;;;5073060;28;20449;-77
2023/12/29 10:54:07;;;;;;;16.87;16.13;;;;;;;;;;5073379;28;20445;-76
2023/12/29 10:56:34;;;;;;;17.57;16.57;;;;;;;;;;5072996;28;20465;-76
2023/12/29 10:59:03;;;;;;;17.47;16.67;;;;;;;;;;5073331;28;20437;-75
2023/12/29 11:01:31;;;;;;;18.20;17.10;;;;;;;;;;5071992;28;20576;-76
2023/12/29 11:03:59;;;;;;;18.53;17.50;;;;;;;;;;5073158;28;20511;-75
2023/12/29 11:06:26;;;;;;;16.93;16.23;;;;;;;;;;5073144;28;20506;-77
2023/12/29 11:08:53;;;;;;;16.30;15.60;;;;;;;;;;5072724;28;20457;-76
2023/12/29 11:11:20;;;;;;;16.37;15.67;;;;;;;;;;5072147;28;20420;-75
2023/12/29 11:13:48;;;;;;;16.60;15.90;;;;;;;;;;5072720;28;20449;-76
2023/12/29 11:16:17;;;;;;;16.50;15.80;;;;;;;;;;5072815;28;20856;-76
2023/12/29 11:18:45;;;;;;;17.10;16.20;;;;;;;;;;5089618;28;20468;-77
2023/12/29 11:21:13;;;;;;;16.50;15.67;;;;;;;;;;5092185;28;20492;-76
2023/12/29 11:23:40;;;;;;;17.03;16.23;;;;;;;;;;5091184;28;20880;-76
2023/12/29 11:26:08;;;;;;;16.13;15.53;;;;;;;;;;5092119;28;20892;-77
2023/12/29 11:28:35;;;;;;;16.80;16.00;;;;;;;;;;5092913;28;20852;-76
2023/12/29 11:31:02;;;;;;;17.53;16.70;;;;;;;;;;5092476;28;20431;-76
2023/12/29 11:33:32;;;;;;;16.50;15.80;;;;;;;;;;5092963;28;20480;-76
2023/12/29 11:36:03;;;;;;;17.13;16.43;;;;;;;;;;5092660;28;20444;-78
2023/12/29 11:38:34;;;;;;;16.50;15.70;;;;;;;;;;5093008;28;20853;-77
2023/12/29 11:41:05;;;;;;;15.73;15.03;;;;;;;;;;5092173;28;20505;-76
2023/12/29 11:43:32;;;;;;;16.03;15.43;;;;;;;;;;5092566;28;20444;-75
2023/12/29 11:45:59;;;;;;;16.33;15.73;;;;;;;;;;5092633;28;20477;-76
2023/12/29 11:48:45;;;;;;;16.63;15.93;;;;;;;;;;5091781;28;20457;-76
2023/12/29 11:51:27;;;;;;;15.20;14.50;;;;;;;;;;5091561;28;20441;-77
2023/12/29 11:53:56;;;;;;;16.10;15.40;;;;;;;;;;5092232;28;20872;-77
2023/12/29 11:56:23;;;;;;;15.87;15.27;;;;;;;;;;5092199;28;20435;-75
2023/12/29 11:58:50;;;;;;;17.47;16.77;;;;;;;;;;5091841;28;21331;-75
2023/12/29 12:01:34;;;;;;;17.40;16.70;;;;;;;;;;5091671;28;20484;-76
2023/12/29 12:04:01;;;;;;;17.73;17.03;;;;;;;;;;5092625;28;20434;-76
2023/12/29 12:06:38;;;;;;;17.87;17.17;;;;;;;;;;5091140;28;21053;-77
2023/12/29 12:09:19;;;;;;;18.63;17.83;;;;;;;;;;5092012;28;20518;-77
2023/12/29 12:11:46;;;;;;;17.17;16.47;;;;;;;;;;5091842;28;20400;-76
2023/12/29 12:14:33;;;;;;;17.43;16.73;;;;;;;;;;5092074;28;20447;-77
2023/12/29 12:17:00;;;;;;;17.90;17.00;;;;;;;;;;5091700;28;20515;-76
2023/12/29 12:19:29;;;;;;;18.30;17.50;;;;;;;;;;5091820;28;20808;-76
2023/12/29 12:21:56;;;;;;;16.90;16.20;;;;;;;;;;5091644;28;20469;-76
2023/12/29 12:24:25;;;;;;;16.83;16.13;;;;;;;;;;5091591;28;20506;-76
2023/12/29 12:26:52;;;;;;;16.40;15.80;;;;;;;;;;5091746;28;20659;-77
2023/12/29 12:29:20;;;;;;;16.63;15.93;;;;;;;;;;5091786;28;20423;-77
2023/12/29 12:31:53;;;;;;;16.30;15.60;;;;;;;;;;5090821;28;20933;-77
2023/12/29 12:34:20;;;;;;;15.70;15.10;;;;;;;;;;5091346;28;20977;-76
2023/12/29 12:36:51;;;;;;;16.70;15.90;;;;;;;;;;5090503;28;20455;-75
2023/12/29 12:39:18;;;;;;;15.87;15.27;;;;;;;;;;5091484;28;20445;-74
2023/12/29 12:41:46;;;;;;;17.60;16.90;;;;;;;;;;5089605;28;20451;-76
2023/12/29 12:44:14;;;;;;;18.07;16.80;;;;;;;;;;5077381;28;20507;-77
2023/12/29 12:46:46;;;;;;;16.10;15.43;;;;;;;;;;5083608;28;20477;-88
2023/12/29 12:52:33;;;;;;;19.07;18.27;;;;;;;;;;4995017;28;20547;-76
2023/12/29 12:55:01;;;;;;;17.63;16.80;;;;;;;;;;5043020;28;20469;-75
2023/12/29 12:57:29;;;;;;;16.70;15.80;;;;;;;;;;5070080;28;20486;-75
2023/12/29 12:59:57;;;;;;;17.60;16.60;;;;;;;;;;5070579;28;20835;-74
2023/12/29 13:02:24;;;;;;;18.03;17.20;;;;;;;;;;5069733;28;20485;-75
2023/12/29 13:04:53;;;;;;;17.63;16.83;;;;;;;;;;5069891;28;20507;-76
2023/12/29 13:10:24;;;;;;;19.40;18.40;;;;;;;;;;5068793;28;20777;-77
2023/12/29 13:12:55;;;;;;;19.77;18.60;;;;;;;;;;5070090;28;20438;-76
2023/12/29 13:15:22;;;;;;;17.60;16.80;;;;;;;;;;5070757;28;20436;-77
2023/12/29 13:17:51;;;;;;;18.40;17.50;;;;;;;;;;5088352;28;20893;-81
2023/12/29 13:20:18;;;;;;;18.17;17.37;;;;;;;;;;5090778;28;20448;-75
2023/12/29 13:22:48;;;;;;;18.73;17.90;;;;;;;;;;5069830;28;20454;-75
2023/12/29 13:25:20;;;;;;;19.40;18.40;;;;;;;;;;5073864;28;20556;-79
2023/12/29 13:27:47;;;;;;;17.60;16.80;;;;;;;;;;5090516;28;20468;-75
2023/12/29 13:30:15;;;;;;;17.80;16.90;;;;;;;;;;5090868;28;20444;-74
2023/12/29 13:32:44;;;;;;;18.90;17.90;;;;;;;;;;5089838;28;20953;-74
2023/12/29 13:35:13;;;;;;;19.93;18.47;;;;;;;;;;5090915;28;20488;-74
2023/12/29 13:37:44;;;;;;;17.33;16.63;;;;;;;;;;5090259;28;20862;-75
2023/12/29 13:40:13;;;;;;;19.30;18.40;;;;;;;;;;5077411;28;20413;-76
2023/12/29 13:42:42;;;;;;;17.97;17.00;;;;;;;;;;5074368;28;20489;-75
2023/12/29 13:45:10;;;;;;;23.17;21.10;;;;;;;;;;5070259;28;20514;-79
2023/12/29 13:47:39;;;;;;;30.47;27.83;;;;;;;;;;5071551;28;20508;-76
2023/12/29 13:50:07;;;;;;;23.80;21.97;;;;;;;;;;5069997;28;20457;-76
2023/12/29 13:52:34;;;;;;;20.80;19.53;;;;;;;;;;5069328;28;20773;-75
2023/12/29 13:55:01;;;;;;;84.27;70.83;;;;;;;;;;5069868;28;21002;-75
2023/12/29 13:57:32;;;;;;;31.83;28.60;;;;;;;;;;5069107;28;20904;-76
2023/12/29 13:59:59;;;;;;;23.37;21.60;;;;;;;;;;5070068;28;20881;-75
2023/12/29 14:02:30;;;;;;;29.63;27.73;;;;;;;;;;5069883;28;20489;-75
2023/12/29 14:05:16;;;;;;;21.73;20.47;;;;;;;;;;5069803;28;20888;-75
2023/12/29 14:07:46;;;;;;;20.13;18.97;;;;;;;;;;5069566;28;21049;-76
2023/12/29 14:10:13;;;;;;;20.03;18.83;;;;;;;;;;5069708;28;20849;-76
2023/12/29 14:12:40;;;;;;;21.43;20.37;;;;;;;;;;5069681;28;20442;-76
2023/12/29 14:15:09;;;;;;;19.13;18.23;;;;;;;;;;5070066;28;20500;-75
2023/12/29 14:17:37;;;;;;;18.30;17.30;;;;;;;;;;5069805;28;20477;-75
2023/12/29 14:20:06;;;;;;;18.73;17.73;;;;;;;;;;5069825;28;20511;-75
2023/12/29 14:22:34;;;;;;;19.43;18.53;;;;;;;;;;5069467;28;20489;-76
2023/12/29 14:25:02;;;;;;;21.47;19.90;;;;;;;;;;5069734;28;20450;-76
2023/12/29 14:27:30;;;;;;;19.27;18.37;;;;;;;;;;5069426;28;20587;-76
2023/12/29 14:29:58;;;;;;;19.17;18.17;;;;;;;;;;5069724;28;20461;-77
2023/12/29 14:32:25;;;;;;;21.80;20.40;;;;;;;;;;5069187;28;20449;-76
2023/12/29 14:34:54;;;;;;;17.60;16.80;;;;;;;;;;5069630;28;20467;-78
2023/12/29 14:37:22;;;;;;;18.63;17.70;;;;;;;;;;5069581;28;20498;-76